createdAt,value
2017-11-06T00:01:34.619Z,11.37
2017-11-06T00:04:02.171Z,11.73
2017-11-06T00:06:29.502Z,12.30
2017-11-06T00:08:56.816Z,10.63
2017-11-06T00:11:24.137Z,12.23
2017-11-06T00:13:51.445Z,11.90
2017-11-06T00:16:18.773Z,13.20
2017-11-06T00:18:46.081Z,11.00
2017-11-06T00:21:13.409Z,10.27
2017-11-06T00:23:40.745Z,10.70
2017-11-06T00:26:08.107Z,11.20
2017-11-06T00:28:35.417Z,11.10
2017-11-06T00:31:02.742Z,11.07
2017-11-06T00:33:30.054Z,10.00
2017-11-06T00:35:57.381Z,10.83
2017-11-06T00:38:24.714Z,11.30
2017-11-06T00:40:52.018Z,10.70
2017-11-06T00:43:19.389Z,11.17
2017-11-06T00:45:47.682Z,10.87
2017-11-06T00:48:15.041Z,10.80
2017-11-06T00:50:42.391Z,10.80
2017-11-06T00:53:09.702Z,10.63
2017-11-06T00:55:37.029Z,12.37
2017-11-06T00:58:04.417Z,11.40
2017-11-06T01:00:31.750Z,11.23
2017-11-06T01:02:59.085Z,12.03
2017-11-06T01:05:26.410Z,11.00
2017-11-06T01:07:53.765Z,12.03
2017-11-06T01:10:21.082Z,10.60
2017-11-06T01:12:48.413Z,11.30
2017-11-06T01:15:15.761Z,10.63
2017-11-06T01:17:43.090Z,11.43
2017-11-06T01:20:10.451Z,11.07
2017-11-06T01:22:38.090Z,12.03
2017-11-06T01:25:05.421Z,11.77
2017-11-06T01:27:32.725Z,12.60
2017-11-06T01:30:00.102Z,11.90
2017-11-06T01:32:27.414Z,11.90
2017-11-06T01:34:54.748Z,11.60
2017-11-06T01:37:22.475Z,11.87
2017-11-06T01:39:49.793Z,11.40
2017-11-06T01:42:17.098Z,11.90
2017-11-06T01:44:44.441Z,11.70
2017-11-06T01:47:12.733Z,10.83
2017-11-06T01:49:40.098Z,10.60
2017-11-06T01:52:07.420Z,10.70
2017-11-06T01:54:34.735Z,11.20
2017-11-06T01:57:02.057Z,10.73
2017-11-06T01:59:29.370Z,9.83
2017-11-06T02:01:56.697Z,11.73
2017-11-06T02:04:24.011Z,11.33
2017-11-06T02:06:51.347Z,11.10
2017-11-06T02:09:18.645Z,12.17
2017-11-06T02:11:45.969Z,11.60
2017-11-06T02:14:13.282Z,10.77
2017-11-06T02:16:40.606Z,10.80
2017-11-06T02:19:07.928Z,11.20
2017-11-06T02:21:35.245Z,10.20
2017-11-06T02:24:02.574Z,10.40
2017-11-06T02:26:30.744Z,9.83
2017-11-06T02:28:58.066Z,10.67
2017-11-06T02:31:25.369Z,9.47
2017-11-06T02:33:53.593Z,10.20
2017-11-06T02:36:20.923Z,9.80
2017-11-06T02:38:48.242Z,8.90
2017-11-06T02:41:15.566Z,9.93
2017-11-06T02:43:43.669Z,9.10
2017-11-06T02:46:10.987Z,9.30
2017-11-06T02:48:39.249Z,8.97
2017-11-06T02:51:06.573Z,9.70
2017-11-06T02:53:34.909Z,8.80
2017-11-06T02:56:03.173Z,8.43
2017-11-06T02:58:30.498Z,9.57
2017-11-06T03:00:57.795Z,9.53
2017-11-06T03:03:25.206Z,9.47
2017-11-06T03:05:52.501Z,7.80
2017-11-06T03:08:19.802Z,9.00
2017-11-06T03:10:47.128Z,8.70
2017-11-06T03:13:14.446Z,8.20
2017-11-06T03:15:41.774Z,8.53
2017-11-06T03:18:09.078Z,8.17
2017-11-06T03:20:36.388Z,8.73
2017-11-06T03:23:03.702Z,8.03
2017-11-06T03:25:31.020Z,7.13
2017-11-06T03:27:58.339Z,8.77
2017-11-06T03:30:25.658Z,7.73
2017-11-06T03:32:52.975Z,8.80
2017-11-06T03:35:20.668Z,8.10
2017-11-06T03:37:48.026Z,8.50
2017-11-06T03:40:15.354Z,8.70
2017-11-06T03:42:42.673Z,8.15
2017-11-06T03:45:09.994Z,7.47
2017-11-06T03:47:37.333Z,8.47
2017-11-06T03:50:04.917Z,8.10
2017-11-06T03:52:32.258Z,8.33
2017-11-06T03:54:59.552Z,8.47
2017-11-06T03:57:26.906Z,8.47
2017-11-06T03:59:54.217Z,9.00
2017-11-06T04:02:21.554Z,9.30
2017-11-06T04:04:48.895Z,10.07
2017-11-06T04:07:16.217Z,10.10
2017-11-06T04:09:43.522Z,9.20
2017-11-06T04:12:10.862Z,8.77
2017-11-06T04:14:38.165Z,8.73
2017-11-06T04:17:05.495Z,8.40
2017-11-06T04:19:32.801Z,8.97
2017-11-06T04:22:00.130Z,9.30
2017-11-06T04:24:27.445Z,8.33
2017-11-06T04:26:54.749Z,8.53
2017-11-06T04:29:22.085Z,8.63
2017-11-06T04:31:49.396Z,7.83
2017-11-06T04:34:22.649Z,8.53
2017-11-06T04:36:49.953Z,7.30
2017-11-06T04:39:17.292Z,8.07
2017-11-06T04:41:44.597Z,8.30
2017-11-06T04:44:11.953Z,7.80
2017-11-06T04:46:39.417Z,7.60
2017-11-06T04:49:06.769Z,8.40
2017-11-06T04:51:34.089Z,7.10
2017-11-06T04:54:01.412Z,7.73
2017-11-06T04:56:28.728Z,8.00
2017-11-06T04:58:56.061Z,7.40
2017-11-06T05:01:23.394Z,8.00
2017-11-06T05:03:50.729Z,7.10
2017-11-06T05:06:18.038Z,7.27
2017-11-06T05:08:45.357Z,7.20
2017-11-06T05:11:12.664Z,7.83
2017-11-06T05:13:39.981Z,7.33
2017-11-06T05:16:07.314Z,7.00
2017-11-06T05:18:34.739Z,8.20
2017-11-06T05:21:02.046Z,7.47
2017-11-06T05:23:29.345Z,7.47
2017-11-06T05:25:56.666Z,7.07
2017-11-06T05:28:23.986Z,7.47
2017-11-06T05:30:51.345Z,6.67
2017-11-06T05:33:18.653Z,7.83
2017-11-06T05:35:45.970Z,8.10
2017-11-06T05:38:13.274Z,8.50
2017-11-06T05:40:40.614Z,6.90
2017-11-06T05:43:07.912Z,7.57
2017-11-06T05:45:35.237Z,7.77
2017-11-06T05:48:02.537Z,8.37
2017-11-06T05:50:29.865Z,10.10
2017-11-06T05:52:58.107Z,8.67
2017-11-06T05:55:25.468Z,8.60
2017-11-06T05:57:52.810Z,8.73
2017-11-06T06:00:20.129Z,8.87
2017-11-06T06:02:47.441Z,8.27
2017-11-06T06:05:14.772Z,8.30
2017-11-06T06:07:42.074Z,9.60
2017-11-06T06:10:09.373Z,9.50
2017-11-06T06:12:36.714Z,9.20
2017-11-06T06:15:04.027Z,9.63
2017-11-06T06:17:31.357Z,8.73
2017-11-06T06:19:58.667Z,9.97
2017-11-06T06:22:25.994Z,8.70
2017-11-06T06:24:53.311Z,10.57
2017-11-06T06:27:21.304Z,9.70
2017-11-06T06:29:48.763Z,9.93
2017-11-06T06:32:16.096Z,9.90
2017-11-06T06:34:43.413Z,10.63
2017-11-06T06:37:10.738Z,10.20
2017-11-06T06:39:40.081Z,9.90
2017-11-06T06:42:07.567Z,9.90
2017-11-06T06:44:35.132Z,10.13
2017-11-06T06:47:02.477Z,9.90
2017-11-06T06:49:29.855Z,9.73
2017-11-06T06:51:57.213Z,11.30
2017-11-06T06:54:24.564Z,10.47
2017-11-06T06:56:51.857Z,10.10
2017-11-06T06:59:19.210Z,10.73
2017-11-06T07:01:46.567Z,11.30
2017-11-06T07:04:13.893Z,10.03
2017-11-06T07:06:43.175Z,10.50
2017-11-06T07:09:10.516Z,10.47
2017-11-06T07:11:37.829Z,11.50
2017-11-06T07:14:05.160Z,10.90
2017-11-06T07:16:32.470Z,10.93
2017-11-06T07:18:59.837Z,9.50
2017-11-06T07:21:27.169Z,10.63
2017-11-06T07:23:54.493Z,11.20
2017-11-06T07:26:21.834Z,10.67
2017-11-06T07:28:49.192Z,10.10
2017-11-06T07:31:16.552Z,10.50
2017-11-06T07:33:43.854Z,10.63
2017-11-06T07:36:11.188Z,11.47
2017-11-06T07:38:38.533Z,10.73
2017-11-06T07:41:05.861Z,10.50
2017-11-06T07:43:33.169Z,10.43
2017-11-06T07:46:00.522Z,10.70
2017-11-06T07:48:27.830Z,11.40
2017-11-06T07:50:55.157Z,10.73
2017-11-06T07:53:22.468Z,10.90
2017-11-06T07:55:49.829Z,10.77
2017-11-06T07:58:17.141Z,10.60
2017-11-06T08:00:44.486Z,10.47
2017-11-06T08:03:11.819Z,10.70
2017-11-06T08:05:39.181Z,9.33
2017-11-06T08:08:06.509Z,10.07
2017-11-06T08:10:33.838Z,10.50
2017-11-06T08:13:01.169Z,9.63
2017-11-06T08:15:28.508Z,9.90
2017-11-06T08:17:55.840Z,11.07
2017-11-06T08:20:23.165Z,10.53
2017-11-06T08:22:50.974Z,10.23
2017-11-06T08:25:18.301Z,12.20
2017-11-06T08:27:45.629Z,10.63
2017-11-06T08:30:12.942Z,11.80
2017-11-06T08:32:40.264Z,10.63
2017-11-06T08:35:07.809Z,10.07
2017-11-06T08:37:35.149Z,11.47
2017-11-06T08:40:02.473Z,10.70
2017-11-06T08:42:29.765Z,11.00
2017-11-06T08:44:57.136Z,11.60
2017-11-06T08:47:24.465Z,11.30
2017-11-06T08:49:51.797Z,11.70
2017-11-06T08:52:19.108Z,10.90
2017-11-06T08:54:46.437Z,11.87
2017-11-06T08:57:14.047Z,11.60
2017-11-06T08:59:41.382Z,10.37
2017-11-06T09:02:08.697Z,10.90
2017-11-06T09:04:36.022Z,10.80
2017-11-06T09:07:03.326Z,11.57
2017-11-06T09:09:30.653Z,11.80
2017-11-06T09:11:57.969Z,11.30
2017-11-06T09:14:25.294Z,10.93
2017-11-06T09:16:52.605Z,11.43
2017-11-06T09:19:19.921Z,11.37
2017-11-06T09:21:48.505Z,11.97
2017-11-06T09:24:15.829Z,11.33
2017-11-06T09:26:43.148Z,11.47
2017-11-06T09:29:10.473Z,12.10
2017-11-06T09:31:37.794Z,11.10
2017-11-06T09:34:05.109Z,11.53
2017-11-06T09:36:32.420Z,9.93
2017-11-06T09:38:59.756Z,11.20
2017-11-06T09:41:27.229Z,11.67
2017-11-06T09:43:54.531Z,11.87
2017-11-06T09:46:21.866Z,12.30
2017-11-06T09:48:49.213Z,10.90
2017-11-06T09:51:16.533Z,11.60
2017-11-06T09:53:43.876Z,11.43
2017-11-06T09:56:11.205Z,11.40
2017-11-06T09:58:38.553Z,10.57
2017-11-06T10:01:05.901Z,10.80
2017-11-06T10:03:33.228Z,11.57
2017-11-06T10:06:00.548Z,10.90
2017-11-06T10:08:27.904Z,11.10
2017-11-06T10:10:55.258Z,10.63
2017-11-06T10:13:22.568Z,10.80
2017-11-06T10:15:49.881Z,10.90
2017-11-06T10:18:17.209Z,10.17
2017-11-06T10:20:44.512Z,11.17
2017-11-06T10:23:11.844Z,9.70
2017-11-06T10:25:39.145Z,10.37
2017-11-06T10:28:06.465Z,10.50
2017-11-06T10:30:33.830Z,9.70
2017-11-06T10:33:01.144Z,10.70
2017-11-06T10:35:28.448Z,12.40
2017-11-06T10:37:55.824Z,10.70
2017-11-06T10:40:23.165Z,10.20
2017-11-06T10:42:50.489Z,10.37
2017-11-06T10:45:17.841Z,11.83
2017-11-06T10:47:45.182Z,10.33
2017-11-06T10:50:12.509Z,11.77
2017-11-06T10:52:40.755Z,11.57
2017-11-06T10:55:08.233Z,11.63
2017-11-06T10:57:35.791Z,10.80
2017-11-06T11:00:03.118Z,10.70
2017-11-06T11:02:30.425Z,10.93
2017-11-06T11:04:57.766Z,11.80
2017-11-06T11:07:25.080Z,10.87
2017-11-06T11:09:52.429Z,11.63
2017-11-06T11:12:19.741Z,11.50
2017-11-06T11:14:47.069Z,11.27
2017-11-06T11:17:14.421Z,11.10
2017-11-06T11:19:41.737Z,10.97
2017-11-06T11:22:09.071Z,10.50
2017-11-06T11:24:36.364Z,11.63
2017-11-06T11:27:03.713Z,12.20
2017-11-06T11:29:31.026Z,11.57
2017-11-06T11:31:58.357Z,12.13
2017-11-06T11:34:25.712Z,10.90
2017-11-06T11:36:54.295Z,10.20
2017-11-06T11:39:21.907Z,9.20
2017-11-06T11:41:49.262Z,10.53
2017-11-06T11:44:16.581Z,10.00
2017-11-06T11:46:43.897Z,8.97
2017-11-06T11:49:12.185Z,9.40
2017-11-06T11:51:39.499Z,8.60
2017-11-06T11:54:06.822Z,8.70
2017-11-06T11:56:34.119Z,8.33
2017-11-06T11:59:01.444Z,8.20
2017-11-06T12:01:28.754Z,7.20
2017-11-06T12:03:56.096Z,9.00
2017-11-06T12:06:23.393Z,7.30
2017-11-06T12:08:50.716Z,8.47
2017-11-06T12:11:18.029Z,7.60
2017-11-06T12:13:45.370Z,6.53
2017-11-06T12:16:12.664Z,6.43
2017-11-06T12:18:40.006Z,7.00
2017-11-06T12:21:07.306Z,7.57
2017-11-06T12:23:34.644Z,7.40
2017-11-06T12:26:01.942Z,8.33
2017-11-06T12:28:29.258Z,6.40
2017-11-06T12:30:56.639Z,6.80
2017-11-06T12:33:23.953Z,7.10
2017-11-06T12:35:51.294Z,7.70
2017-11-06T12:38:18.630Z,7.60
2017-11-06T12:40:45.978Z,7.17
2017-11-06T12:43:13.261Z,7.90
2017-11-06T12:45:40.585Z,7.50
2017-11-06T12:48:07.886Z,7.17
2017-11-06T12:50:35.226Z,7.13
2017-11-06T12:53:02.545Z,6.33
2017-11-06T12:55:29.941Z,6.30
2017-11-06T12:57:57.241Z,6.20
2017-11-06T13:00:24.594Z,6.20
2017-11-06T13:02:51.919Z,6.60
2017-11-06T13:05:19.238Z,5.73
2017-11-06T13:07:46.570Z,6.13
2017-11-06T13:10:13.868Z,6.00
2017-11-06T13:12:41.235Z,6.23
2017-11-06T13:15:08.556Z,6.30
2017-11-06T13:17:36.785Z,7.03
2017-11-06T13:20:04.113Z,6.60
2017-11-06T13:22:31.432Z,6.60
2017-11-06T13:24:58.759Z,5.80
2017-11-06T13:27:26.077Z,5.50
2017-11-06T13:29:53.380Z,6.10
2017-11-06T13:32:20.732Z,5.50
2017-11-06T13:34:48.016Z,5.33
2017-11-06T13:37:15.363Z,4.20
2017-11-06T13:39:42.658Z,4.30
2017-11-06T13:42:10.013Z,3.97
2017-11-06T13:44:37.332Z,3.90
2017-11-06T13:47:04.644Z,3.47
2017-11-06T13:49:31.997Z,3.77
2017-11-06T13:51:59.312Z,3.37
2017-11-06T13:54:26.618Z,3.50
2017-11-06T13:56:53.937Z,3.13
2017-11-06T13:59:21.433Z,3.57
2017-11-06T14:01:48.733Z,3.43
2017-11-06T14:04:16.066Z,4.07
2017-11-06T14:06:43.361Z,2.90
2017-11-06T14:09:10.728Z,3.27
2017-11-06T14:11:38.035Z,3.47
2017-11-06T14:14:05.349Z,4.73
2017-11-06T14:16:32.691Z,4.00
2017-11-06T14:18:59.981Z,3.97
2017-11-06T14:21:27.309Z,4.50
2017-11-06T14:23:54.615Z,3.70
2017-11-06T14:26:21.938Z,3.57
2017-11-06T14:28:49.675Z,3.13
2017-11-06T14:31:17.035Z,3.10
2017-11-06T14:33:44.326Z,3.67
2017-11-06T14:36:11.648Z,3.17
2017-11-06T14:38:38.936Z,3.20
2017-11-06T14:41:06.252Z,4.20
2017-11-06T14:43:33.593Z,5.00
2017-11-06T14:46:00.942Z,4.20
2017-11-06T14:48:28.237Z,4.40
2017-11-06T14:50:55.578Z,4.60
2017-11-06T14:53:22.882Z,4.43
2017-11-06T14:55:50.226Z,4.70
2017-11-06T14:58:17.534Z,5.30
2017-11-06T15:00:44.851Z,4.30
2017-11-06T15:03:12.203Z,5.85
2017-11-06T15:05:39.504Z,5.13
2017-11-06T15:08:06.968Z,4.80
2017-11-06T15:10:34.273Z,4.30
2017-11-06T15:13:01.694Z,4.97
2017-11-06T15:15:29.037Z,4.70
2017-11-06T15:17:56.388Z,4.70
2017-11-06T15:20:23.680Z,4.63
2017-11-06T15:22:51.020Z,4.90
2017-11-06T15:25:19.295Z,4.70
2017-11-06T15:27:46.633Z,5.07
2017-11-06T15:30:13.925Z,5.07
2017-11-06T15:32:41.285Z,5.30
2017-11-06T15:35:08.712Z,4.80
2017-11-06T15:37:36.074Z,5.93
2017-11-06T15:40:03.464Z,5.20
2017-11-06T15:42:31.069Z,6.10
2017-11-06T15:44:59.441Z,6.30
2017-11-06T15:47:26.791Z,11.60
2017-11-06T15:49:54.137Z,12.10
2017-11-06T15:52:21.545Z,8.13
2017-11-06T15:54:48.946Z,10.50
2017-11-06T15:57:16.293Z,10.00
2017-11-06T15:59:43.645Z,10.60
2017-11-06T16:02:11.008Z,11.50
2017-11-06T16:04:38.506Z,10.20
2017-11-06T16:07:05.868Z,9.10
2017-11-06T16:09:33.188Z,9.10
2017-11-06T16:12:00.489Z,7.70
2017-11-06T16:14:28.106Z,8.10
2017-11-06T16:16:55.402Z,9.10
2017-11-06T16:19:22.700Z,8.90
2017-11-06T16:21:50.130Z,10.33
2017-11-06T16:24:17.553Z,11.73
2017-11-06T16:26:44.898Z,11.10
2017-11-06T16:29:12.221Z,11.13
2017-11-06T16:31:40.529Z,11.73
2017-11-06T16:34:08.146Z,8.55
2017-11-06T16:36:35.481Z,9.20
2017-11-06T16:39:03.101Z,8.40
2017-11-06T16:41:30.431Z,8.43
2017-11-06T16:43:57.873Z,8.70
2017-11-06T16:46:25.218Z,9.87
2017-11-06T16:48:52.689Z,9.47
2017-11-06T16:51:20.020Z,9.00
2017-11-06T16:53:47.499Z,9.77
2017-11-06T16:56:14.790Z,9.77
2017-11-06T16:58:42.149Z,9.10
2017-11-06T17:01:09.453Z,11.93
2017-11-06T17:03:36.886Z,13.70
2017-11-06T17:06:04.222Z,20.03
2017-11-06T17:08:31.667Z,24.30
2017-11-06T17:10:59.000Z,15.90
2017-11-06T17:13:26.524Z,13.60
2017-11-06T17:15:53.849Z,14.23
2017-11-06T17:18:21.181Z,12.73
2017-11-06T17:20:48.549Z,13.00
2017-11-06T17:23:15.882Z,13.80
2017-11-06T17:25:43.230Z,15.00
2017-11-06T17:28:10.537Z,18.30
2017-11-06T17:30:38.849Z,18.87
2017-11-06T17:33:06.170Z,21.30
2017-11-06T17:35:33.596Z,28.13
2017-11-06T17:38:00.923Z,25.10
2017-11-06T17:40:28.265Z,25.50
2017-11-06T17:42:55.610Z,28.00
2017-11-06T17:45:22.925Z,23.83
2017-11-06T17:47:50.267Z,22.30
2017-11-06T17:50:17.597Z,24.23
2017-11-06T17:52:44.897Z,25.27
2017-11-06T17:55:12.221Z,25.00
2017-11-06T17:57:39.555Z,22.47
2017-11-06T18:00:06.882Z,23.60
2017-11-06T18:02:34.346Z,24.37
2017-11-06T18:05:01.733Z,27.60
2017-11-06T18:07:29.152Z,31.43
2017-11-06T18:09:56.492Z,27.90
2017-11-06T18:12:23.945Z,28.50
2017-11-06T18:14:51.454Z,25.43
2017-11-06T18:17:18.805Z,27.87
2017-11-06T18:19:46.129Z,27.33
2017-11-06T18:22:13.773Z,23.80
2017-11-06T18:24:41.251Z,27.40
2017-11-06T18:27:08.565Z,26.23
2017-11-06T18:29:35.886Z,27.00
2017-11-06T18:32:03.301Z,28.13
2017-11-06T18:34:30.621Z,27.27
2017-11-06T18:36:57.961Z,26.83
2017-11-06T18:39:25.274Z,26.13
2017-11-06T18:41:52.613Z,26.17
2017-11-06T18:44:19.937Z,26.40
2017-11-06T18:46:47.273Z,27.63
2017-11-06T18:49:14.630Z,28.60
2017-11-06T18:51:41.949Z,26.60
2017-11-06T18:54:09.304Z,26.43
2017-11-06T18:56:36.849Z,25.35
2017-11-06T18:59:04.248Z,23.67
2017-11-06T19:01:31.561Z,24.70
2017-11-06T19:03:58.892Z,27.07
2017-11-06T19:06:26.217Z,29.40
2017-11-06T19:08:53.557Z,42.83
2017-11-06T19:11:21.814Z,43.40
2017-11-06T19:13:49.172Z,33.50
2017-11-06T19:16:16.802Z,29.70
2017-11-06T19:18:44.115Z,30.90
2017-11-06T19:21:11.460Z,29.80
2017-11-06T19:23:38.814Z,30.70
2017-11-06T19:26:06.138Z,33.80
2017-11-06T19:28:34.388Z,32.50
2017-11-06T19:31:01.774Z,31.60
2017-11-06T19:33:29.168Z,28.53
2017-11-06T19:35:56.644Z,29.37
2017-11-06T19:38:24.029Z,30.57
2017-11-06T19:40:51.361Z,29.67
2017-11-06T19:43:18.685Z,28.60
2017-11-06T19:45:47.092Z,30.70
2017-11-06T19:48:14.831Z,29.97
2017-11-06T19:50:42.662Z,27.00
2017-11-06T19:53:10.216Z,26.60
2017-11-06T19:55:37.525Z,26.00
2017-11-06T19:58:04.866Z,27.13
2017-11-06T20:00:32.183Z,28.33
2017-11-06T20:02:59.521Z,29.43
2017-11-06T20:05:26.881Z,29.60
2017-11-06T20:07:54.289Z,30.50
2017-11-06T20:10:21.630Z,31.60
2017-11-06T20:12:48.973Z,32.50
2017-11-06T20:15:16.479Z,33.47
2017-11-06T20:17:43.829Z,32.73
2017-11-06T20:20:11.151Z,30.73
2017-11-06T20:22:38.474Z,29.60
2017-11-06T20:25:05.858Z,32.10
2017-11-06T20:27:33.236Z,31.40
2017-11-06T20:30:00.576Z,29.17
2017-11-06T20:32:27.885Z,30.03
2017-11-06T20:34:55.215Z,29.63
2017-11-06T20:37:22.513Z,32.30
2017-11-06T20:39:49.833Z,28.67
2017-11-06T20:42:17.141Z,28.70
2017-11-06T20:44:44.500Z,27.40
2017-11-06T20:47:11.832Z,31.40
2017-11-06T20:49:39.156Z,29.33
2017-11-06T20:52:06.469Z,30.17
2017-11-06T20:54:33.794Z,28.67
2017-11-06T20:57:01.173Z,28.83
2017-11-06T20:59:28.517Z,28.27
2017-11-06T21:01:55.842Z,30.43
2017-11-06T21:04:23.250Z,27.30
2017-11-06T21:06:50.585Z,29.00
2017-11-06T21:09:17.913Z,28.63
2017-11-06T21:11:45.525Z,29.80
2017-11-06T21:14:12.867Z,28.87
2017-11-06T21:16:40.186Z,29.60
2017-11-06T21:19:07.492Z,27.60
2017-11-06T21:21:34.816Z,26.70
2017-11-06T21:24:02.133Z,27.55
2017-11-06T21:26:29.472Z,27.93
2017-11-06T21:28:56.813Z,27.87
2017-11-06T21:31:24.134Z,28.10
2017-11-06T21:33:51.443Z,25.50
2017-11-06T21:36:18.773Z,25.30
2017-11-06T21:38:46.084Z,25.73
2017-11-06T21:41:13.416Z,25.73
2017-11-06T21:43:40.765Z,28.43
2017-11-06T21:46:08.116Z,28.07
2017-11-06T21:48:35.461Z,27.03
2017-11-06T21:51:02.790Z,28.10
2017-11-06T21:53:30.405Z,30.33
2017-11-06T21:55:57.715Z,28.50
2017-11-06T21:58:25.045Z,29.80
2017-11-06T22:00:53.256Z,31.17
2017-11-06T22:03:20.620Z,31.20
2017-11-06T22:05:47.970Z,34.57
2017-11-06T22:08:15.349Z,29.60
2017-11-06T22:10:42.647Z,30.43
2017-11-06T22:13:10.941Z,27.17
2017-11-06T22:15:38.257Z,28.17
2017-11-06T22:18:05.588Z,31.53
2017-11-06T22:20:32.906Z,32.17
2017-11-06T22:23:00.228Z,27.23
2017-11-06T22:25:27.549Z,27.17
2017-11-06T22:27:54.905Z,28.17
2017-11-06T22:30:22.221Z,26.87
2017-11-06T22:32:49.541Z,31.60
2017-11-06T22:35:16.877Z,27.80
2017-11-06T22:37:44.190Z,31.00
2017-11-06T22:40:11.525Z,27.03
2017-11-06T22:42:38.841Z,25.67
2017-11-06T22:45:06.220Z,24.83
2017-11-06T22:47:33.577Z,24.50
2017-11-06T22:50:00.953Z,25.17
2017-11-06T22:52:28.293Z,25.70
2017-11-06T22:54:55.689Z,24.60
2017-11-06T22:57:23.078Z,26.00
2017-11-06T22:59:50.425Z,27.40
2017-11-06T23:02:17.769Z,28.87
2017-11-06T23:04:45.102Z,25.97
2017-11-06T23:07:12.410Z,24.17
2017-11-06T23:09:39.719Z,25.80
2017-11-06T23:12:07.065Z,26.63
2017-11-06T23:14:34.381Z,25.70
2017-11-06T23:17:01.713Z,27.97
2017-11-06T23:19:29.503Z,24.37
2017-11-06T23:21:56.871Z,25.27
2017-11-06T23:24:24.188Z,24.35
2017-11-06T23:26:52.435Z,25.47
2017-11-06T23:29:19.744Z,25.90
2017-11-06T23:31:47.097Z,23.10
2017-11-06T23:34:14.414Z,26.40
2017-11-06T23:36:41.780Z,25.27
2017-11-06T23:39:10.096Z,26.90
2017-11-06T23:41:37.438Z,25.37
2017-11-06T23:44:04.758Z,23.87
2017-11-06T23:46:32.072Z,24.20
2017-11-06T23:49:00.409Z,22.73
2017-11-06T23:51:27.821Z,23.13
2017-11-06T23:53:55.152Z,25.90
2017-11-06T23:56:22.485Z,27.27
2017-11-06T23:58:49.849Z,29.30
